Time;durP1;ratioP1;P1;durP2;ratioP2;P2;SDS_P1;SDS_P2;PMS_P1;PMS_P2;Temp;Humidity;BMP_temperature;BMP_pressure;BME280_temperature;BME280_humidity;BME280_pressure;Samples;Min_cycle;Max_cycle;Signal;HPM_P1;HPM_P2
2022/12/25 00:00:12;;;;;;;17.02;5.43;;;;;;;;;;5065434;28;20372;-73
2022/12/25 00:02:38;;;;;;;21.23;5.53;;;;;;;;;;5068304;28;20028;-75
2022/12/25 00:05:05;;;;;;;18.73;5.60;;;;;;;;;;5048859;28;20036;-74
2022/12/25 00:07:31;;;;;;;18.52;5.60;;;;;;;;;;5052630;28;20411;-73
2022/12/25 00:09:56;;;;;;;12.07;4.88;;;;;;;;;;5043516;28;20040;-74
2022/12/25 00:12:22;;;;;;;16.00;5.18;;;;;;;;;;5043167;28;20044;-72
2022/12/25 00:14:47;;;;;;;11.85;5.25;;;;;;;;;;5065379;28;20032;-74
2022/12/25 00:17:13;;;;;;;18.00;5.25;;;;;;;;;;5065779;28;20473;-73
2022/12/25 00:19:38;;;;;;;13.88;6.05;;;;;;;;;;5065903;28;20017;-73
2022/12/25 00:22:03;;;;;;;14.63;6.10;;;;;;;;;;5067223;28;20039;-73
2022/12/25 00:24:29;;;;;;;13.38;5.53;;;;;;;;;;5071599;28;20425;-75
2022/12/25 00:26:54;;;;;;;14.95;5.68;;;;;;;;;;5071386;28;20542;-74
2022/12/25 00:29:20;;;;;;;13.23;5.05;;;;;;;;;;5053381;28;20028;-75
2022/12/25 00:31:45;;;;;;;15.93;5.97;;;;;;;;;;5070949;28;20060;-73
2022/12/25 00:34:11;;;;;;;16.52;5.75;;;;;;;;;;5052248;28;20491;-75
2022/12/25 00:36:36;;;;;;;18.27;5.75;;;;;;;;;;5071115;28;20032;-74
2022/12/25 00:39:02;;;;;;;19.42;6.70;;;;;;;;;;5070050;28;20027;-73
2022/12/25 00:44:12;;;;;;;15.10;6.47;;;;;;;;;;5067087;28;20148;-73
2022/12/25 00:46:38;;;;;;;17.63;6.53;;;;;;;;;;5070963;28;20455;-74
2022/12/25 00:49:04;;;;;;;14.02;6.30;;;;;;;;;;5036848;28;20433;-74
2022/12/25 00:51:30;;;;;;;18.33;6.32;;;;;;;;;;5068996;28;20469;-73
2022/12/25 00:53:56;;;;;;;19.35;7.05;;;;;;;;;;5067822;28;20029;-73
2022/12/25 00:56:22;;;;;;;19.40;7.05;;;;;;;;;;5067148;28;20810;-75
2022/12/25 00:58:47;;;;;;;15.52;6.22;;;;;;;;;;5069522;28;20389;-75
2022/12/25 01:01:13;;;;;;;15.25;6.00;;;;;;;;;;5067084;28;20090;-75
2022/12/25 01:03:38;;;;;;;16.05;6.35;;;;;;;;;;5050131;28;20037;-73
2022/12/25 01:06:06;;;;;;;14.77;5.75;;;;;;;;;;5065289;28;20029;-74
2022/12/25 01:08:35;;;;;;;15.55;6.00;;;;;;;;;;5052065;28;20025;-74
2022/12/25 01:11:05;;;;;;;18.02;6.53;;;;;;;;;;5067719;28;20091;-74
2022/12/25 01:13:33;;;;;;;16.98;5.63;;;;;;;;;;5050338;28;20028;-74
2022/12/25 01:16:10;;;;;;;16.23;5.57;;;;;;;;;;5065907;28;20060;-75
2022/12/25 01:18:37;;;;;;;15.50;6.25;;;;;;;;;;5059495;28;20025;-75
2022/12/25 01:21:11;;;;;;;14.63;5.63;;;;;;;;;;5064360;28;20069;-76
2022/12/25 01:23:37;;;;;;;11.98;5.45;;;;;;;;;;5050995;28;20028;-77
2022/12/25 01:26:08;;;;;;;18.80;5.75;;;;;;;;;;5048360;28;20425;-74
2022/12/25 01:28:37;;;;;;;16.70;6.10;;;;;;;;;;5051212;28;20036;-75
2022/12/25 01:31:03;;;;;;;15.63;6.10;;;;;;;;;;5068409;28;20488;-73
2022/12/25 01:33:28;;;;;;;16.92;6.32;;;;;;;;;;5049294;28;20033;-76
2022/12/25 01:35:54;;;;;;;16.42;6.28;;;;;;;;;;5066332;28;20039;-73
2022/12/25 01:38:20;;;;;;;17.48;6.43;;;;;;;;;;5064884;28;20508;-75
2022/12/25 01:40:46;;;;;;;12.90;5.82;;;;;;;;;;5034523;28;20036;-74
2022/12/25 01:43:21;;;;;;;14.20;5.32;;;;;;;;;;5046722;28;20025;-74
2022/12/25 01:45:48;;;;;;;15.07;5.32;;;;;;;;;;5069167;28;20027;-74
2022/12/25 01:48:19;;;;;;;17.45;6.07;;;;;;;;;;5052483;28;20535;-74
2022/12/25 01:50:52;;;;;;;16.67;5.45;;;;;;;;;;5050549;28;20521;-76
2022/12/25 01:53:18;;;;;;;12.02;5.18;;;;;;;;;;5052099;28;20040;-74
2022/12/25 01:55:46;;;;;;;14.60;5.93;;;;;;;;;;5069974;28;20033;-74
2022/12/25 01:58:11;;;;;;;16.05;5.75;;;;;;;;;;5069803;28;20025;-76
2022/12/25 02:00:37;;;;;;;18.20;6.10;;;;;;;;;;5066411;28;20047;-74
2022/12/25 02:03:05;;;;;;;16.50;5.78;;;;;;;;;;5062083;28;20074;-75
2022/12/25 02:05:32;;;;;;;13.30;5.88;;;;;;;;;;5049093;28;20039;-73
2022/12/25 02:08:03;;;;;;;16.27;6.07;;;;;;;;;;5069003;28;20047;-73
2022/12/25 02:10:28;;;;;;;20.98;6.57;;;;;;;;;;5047811;28;20492;-75
2022/12/25 02:12:54;;;;;;;15.70;5.75;;;;;;;;;;5052084;28;20097;-76
2022/12/25 02:15:21;;;;;;;17.92;6.57;;;;;;;;;;5070423;28;20032;-76
2022/12/25 02:18:04;;;;;;;16.05;5.90;;;;;;;;;;5056025;28;20093;-75
2022/12/25 02:21:00;;;;;;;25.85;6.47;;;;;;;;;;5070803;28;20043;-75
2022/12/25 02:23:31;;;;;;;16.17;5.47;;;;;;;;;;5069657;28;20369;-75
2022/12/25 02:26:25;;;;;;;20.10;6.00;;;;;;;;;;5048292;28;20035;-75
2022/12/25 02:29:11;;;;;;;18.40;6.68;;;;;;;;;;5051654;28;21574;-74
2022/12/25 02:31:59;;;;;;;24.55;5.60;;;;;;;;;;5054025;28;20031;-75
2022/12/25 02:34:43;;;;;;;20.40;5.88;;;;;;;;;;5068914;28;20041;-76
2022/12/25 02:37:18;;;;;;;22.13;6.43;;;;;;;;;;5053946;28;20495;-74
2022/12/25 02:40:34;;;;;;;21.23;6.55;;;;;;;;;;5067939;28;20055;-74
2022/12/25 03:08:33;;;;;;;17.08;5.07;;;;;;;;;;5070829;28;20097;-74
2022/12/25 03:13:49;;;;;;;14.13;5.25;;;;;;;;;;5069368;28;20039;-74
2022/12/25 03:18:59;;;;;;;19.98;6.22;;;;;;;;;;5069929;28;20043;-73
2022/12/25 03:26:55;;;;;;;18.98;5.28;;;;;;;;;;5068033;28;20427;-74
2022/12/25 03:32:57;;;;;;;16.92;5.93;;;;;;;;;;5068545;28;20063;-72
2022/12/25 03:35:48;;;;;;;18.73;5.68;;;;;;;;;;5065144;28;20032;-74
2022/12/25 04:36:54;;;;;;;21.13;7.03;;;;;;;;;;5068027;28;20090;-74
2022/12/25 04:39:20;;;;;;;18.30;6.93;;;;;;;;;;5066544;28;20632;-73
2022/12/25 04:41:45;;;;;;;13.15;6.60;;;;;;;;;;5070394;28;20099;-72
2022/12/25 04:44:11;;;;;;;19.45;6.88;;;;;;;;;;5034984;28;20453;-74
2022/12/25 04:46:36;;;;;;;14.10;6.53;;;;;;;;;;5070143;28;20016;-73
2022/12/25 04:49:02;;;;;;;15.90;6.68;;;;;;;;;;5069685;28;20039;-74
2022/12/25 04:51:27;;;;;;;26.05;7.32;;;;;;;;;;5067555;28;20116;-74
2022/12/25 04:53:53;;;;;;;20.02;7.40;;;;;;;;;;5069019;28;20462;-74
2022/12/25 04:56:20;;;;;;;20.02;8.27;;;;;;;;;;5059836;28;20032;-74
2022/12/25 04:58:46;;;;;;;19.00;7.95;;;;;;;;;;5059460;28;20041;-74
2022/12/25 05:01:11;;;;;;;20.23;7.95;;;;;;;;;;5040733;28;20114;-73
2022/12/25 05:03:37;;;;;;;22.63;7.82;;;;;;;;;;5057346;28;20077;-73
2022/12/25 05:06:03;;;;;;;23.25;8.40;;;;;;;;;;5045056;28;20396;-73
2022/12/25 05:08:30;;;;;;;23.58;8.27;;;;;;;;;;5062038;28;20032;-74
2022/12/25 05:10:56;;;;;;;16.77;7.38;;;;;;;;;;5060043;28;20025;-73
2022/12/25 05:13:21;;;;;;;23.02;7.72;;;;;;;;;;5061688;28;20489;-74
2022/12/25 05:15:47;;;;;;;19.83;7.38;;;;;;;;;;5062902;28;20105;-74
2022/12/25 05:18:13;;;;;;;14.90;7.22;;;;;;;;;;5060131;28;20031;-73
2022/12/25 05:20:38;;;;;;;20.40;8.23;;;;;;;;;;5062952;28;20029;-73
2022/12/25 05:23:03;;;;;;;23.83;8.10;;;;;;;;;;5063539;28;20056;-73
2022/12/25 05:25:29;;;;;;;16.63;7.60;;;;;;;;;;5037665;28;20112;-74
2022/12/25 05:27:54;;;;;;;18.48;7.95;;;;;;;;;;5059288;28;20672;-73
2022/12/25 05:30:20;;;;;;;22.67;7.78;;;;;;;;;;5065313;28;20039;-74
2022/12/25 05:32:47;;;;;;;19.05;8.02;;;;;;;;;;5062929;28;20420;-73
2022/12/25 05:35:12;;;;;;;20.48;8.18;;;;;;;;;;5044567;28;20056;-74
2022/12/25 05:37:38;;;;;;;19.08;8.55;;;;;;;;;;5044641;28;20051;-74
2022/12/25 05:40:04;;;;;;;18.80;8.70;;;;;;;;;;5056904;28;20519;-74
2022/12/25 05:42:29;;;;;;;18.67;8.27;;;;;;;;;;5058610;28;20127;-74
2022/12/25 05:44:54;;;;;;;13.43;7.35;;;;;;;;;;5058509;28;20082;-73
2022/12/25 05:47:20;;;;;;;18.27;7.90;;;;;;;;;;5058695;28;20060;-73
2022/12/25 05:49:45;;;;;;;20.67;7.47;;;;;;;;;;5055721;28;20120;-72
2022/12/25 05:52:11;;;;;;;21.08;7.22;;;;;;;;;;5054543;28;20025;-73
2022/12/25 05:54:36;;;;;;;14.07;7.22;;;;;;;;;;5067200;28;20033;-73
2022/12/25 05:57:02;;;;;;;15.95;7.38;;;;;;;;;;5068423;28;20070;-74
2022/12/25 05:59:32;;;;;;;16.67;7.30;;;;;;;;;;5068451;28;20032;-73
2022/12/25 06:01:58;;;;;;;17.10;7.45;;;;;;;;;;5064169;28;20081;-73
2022/12/25 06:04:25;;;;;;;16.80;7.50;;;;;;;;;;5060538;28;20047;-74
2022/12/25 06:06:51;;;;;;;14.57;6.68;;;;;;;;;;5042375;28;20032;-74
2022/12/25 06:09:17;;;;;;;17.85;7.53;;;;;;;;;;5059484;28;20464;-74
2022/12/25 06:11:42;;;;;;;17.05;6.97;;;;;;;;;;5057119;28;20027;-74
2022/12/25 06:14:13;;;;;;;20.30;6.90;;;;;;;;;;5063172;28;20032;-74
2022/12/25 06:16:39;;;;;;;16.58;7.60;;;;;;;;;;5061073;28;20037;-74
2022/12/25 06:19:04;;;;;;;15.82;7.47;;;;;;;;;;5056816;28;20085;-74
2022/12/25 06:21:30;;;;;;;14.25;6.85;;;;;;;;;;5059023;28;20044;-74
2022/12/25 06:23:55;;;;;;;14.95;6.82;;;;;;;;;;5064139;28;20025;-74
2022/12/25 06:26:21;;;;;;;20.40;7.97;;;;;;;;;;5067907;28;20408;-74
2022/12/25 06:28:46;;;;;;;18.05;7.90;;;;;;;;;;5066890;28;20406;-74
2022/12/25 06:31:15;;;;;;;15.35;7.93;;;;;;;;;;5068242;28;20028;-74
2022/12/25 06:33:41;;;;;;;12.70;7.65;;;;;;;;;;5050042;28;20032;-74
2022/12/25 06:36:13;;;;;;;15.25;7.47;;;;;;;;;;5068151;28;20036;-74
2022/12/25 06:38:39;;;;;;;24.33;7.40;;;;;;;;;;5066160;28;20070;-74
2022/12/25 06:41:10;;;;;;;15.38;7.90;;;;;;;;;;5066901;28;20078;-73
2022/12/25 06:43:36;;;;;;;13.57;7.45;;;;;;;;;;5064902;28;20037;-73
2022/12/25 06:46:08;;;;;;;13.73;7.20;;;;;;;;;;5048036;28;20047;-75
2022/12/25 06:48:35;;;;;;;16.38;6.30;;;;;;;;;;5066498;28;20400;-76
2022/12/25 06:51:01;;;;;;;13.77;6.90;;;;;;;;;;5062464;28;20028;-74
2022/12/25 06:53:27;;;;;;;9.90;6.85;;;;;;;;;;5067338;28;20032;-74
2022/12/25 06:55:52;;;;;;;13.02;6.55;;;;;;;;;;5064521;28;20508;-74
2022/12/25 06:58:18;;;;;;;12.10;6.45;;;;;;;;;;5062777;28;20063;-75
2022/12/25 07:00:43;;;;;;;14.82;6.63;;;;;;;;;;5059002;28;20384;-74
2022/12/25 07:03:15;;;;;;;10.43;6.50;;;;;;;;;;5044688;28;20036;-72
2022/12/25 07:05:41;;;;;;;14.20;7.15;;;;;;;;;;5065583;28;20043;-74
2022/12/25 07:08:06;;;;;;;14.45;7.10;;;;;;;;;;5048547;28;20441;-74
2022/12/25 07:10:31;;;;;;;13.40;6.63;;;;;;;;;;5062711;28;20025;-75
2022/12/25 07:12:57;;;;;;;13.15;7.28;;;;;;;;;;5059927;28;20039;-74
2022/12/25 07:15:22;;;;;;;12.43;6.20;;;;;;;;;;5065402;28;20031;-75
2022/12/25 07:17:47;;;;;;;14.25;6.22;;;;;;;;;;5061931;28;20033;-75
2022/12/25 07:20:13;;;;;;;12.32;6.20;;;;;;;;;;5062400;28;20033;-74
2022/12/25 07:22:38;;;;;;;16.48;7.63;;;;;;;;;;5050456;28;20024;-74
2022/12/25 07:25:04;;;;;;;11.98;6.78;;;;;;;;;;5064417;28;20035;-74
2022/12/25 07:27:29;;;;;;;11.32;6.10;;;;;;;;;;5066366;28;20059;-74
2022/12/25 07:29:55;;;;;;;13.55;6.55;;;;;;;;;;5064019;28;20146;-74
2022/12/25 07:32:20;;;;;;;10.68;5.97;;;;;;;;;;5068232;28;20040;-74
2022/12/25 07:34:46;;;;;;;13.25;6.78;;;;;;;;;;5065185;28;20531;-73
2022/12/25 07:37:12;;;;;;;15.23;6.65;;;;;;;;;;5067217;28;20028;-73
2022/12/25 07:39:37;;;;;;;15.23;6.78;;;;;;;;;;5049622;28;20514;-75
2022/12/25 07:42:03;;;;;;;12.43;6.68;;;;;;;;;;5061711;28;20032;-74
2022/12/25 07:44:28;;;;;;;10.32;6.10;;;;;;;;;;5065263;28;20555;-76
2022/12/25 07:46:53;;;;;;;13.45;6.38;;;;;;;;;;5066056;28;20033;-75
2022/12/25 07:49:19;;;;;;;10.82;6.38;;;;;;;;;;5067074;28;20047;-75
2022/12/25 07:51:44;;;;;;;11.40;6.18;;;;;;;;;;5067804;28;20020;-74
2022/12/25 07:54:10;;;;;;;13.20;6.22;;;;;;;;;;5062728;28;20434;-74
2022/12/25 07:56:35;;;;;;;11.98;6.38;;;;;;;;;;5064987;28;20521;-75
2022/12/25 07:59:00;;;;;;;12.43;6.68;;;;;;;;;;5067982;28;20040;-74
2022/12/25 08:01:26;;;;;;;13.93;6.32;;;;;;;;;;5069295;28;20028;-74
2022/12/25 08:03:54;;;;;;;10.10;6.05;;;;;;;;;;5049305;28;20052;-75
2022/12/25 08:06:22;;;;;;;10.45;6.05;;;;;;;;;;5065469;28;20550;-75
2022/12/25 08:08:47;;;;;;;11.32;5.90;;;;;;;;;;5064783;28;20111;-74
2022/12/25 08:11:13;;;;;;;12.07;6.05;;;;;;;;;;5069170;28;20038;-74
2022/12/25 08:13:39;;;;;;;13.95;6.22;;;;;;;;;;5064649;28;20050;-74
2022/12/25 08:16:07;;;;;;;10.82;6.10;;;;;;;;;;5067471;28;20055;-74
2022/12/25 08:18:33;;;;;;;10.32;5.45;;;;;;;;;;5068282;28;20028;-74
2022/12/25 08:21:07;;;;;;;12.38;5.55;;;;;;;;;;5049842;28;20065;-74
2022/12/25 08:23:34;;;;;;;9.82;5.60;;;;;;;;;;5067264;28;20021;-74
2022/12/25 08:26:00;;;;;;;13.00;5.55;;;;;;;;;;5071028;28;20039;-74
2022/12/25 08:28:26;;;;;;;16.30;5.80;;;;;;;;;;5067797;28;20033;-74
2022/12/25 08:30:51;;;;;;;11.55;5.75;;;;;;;;;;5069077;28;20033;-73
2022/12/25 08:33:17;;;;;;;10.38;5.30;;;;;;;;;;5069399;28;20029;-74
2022/12/25 08:35:42;;;;;;;10.77;5.90;;;;;;;;;;5052343;28;20047;-74
2022/12/25 08:38:07;;;;;;;8.60;5.50;;;;;;;;;;5065399;28;20031;-75
2022/12/25 08:40:33;;;;;;;13.60;5.38;;;;;;;;;;5064334;28;20137;-74
2022/12/25 08:42:58;;;;;;;15.55;5.75;;;;;;;;;;5069281;28;20032;-75
2022/12/25 08:45:24;;;;;;;12.38;5.47;;;;;;;;;;5069328;28;20424;-75
2022/12/25 08:47:54;;;;;;;9.40;4.95;;;;;;;;;;5067871;28;20016;-74
2022/12/25 08:50:24;;;;;;;11.32;5.38;;;;;;;;;;5067835;28;20488;-74
2022/12/25 08:52:49;;;;;;;10.68;5.45;;;;;;;;;;5064991;28;20129;-74
2022/12/25 08:55:15;;;;;;;10.85;5.00;;;;;;;;;;5065832;28;20048;-75
2022/12/25 08:57:41;;;;;;;13.23;5.68;;;;;;;;;;5046771;28;20040;-75
2022/12/25 09:00:07;;;;;;;10.35;5.25;;;;;;;;;;5065947;28;20452;-74
2022/12/25 09:02:33;;;;;;;12.60;5.95;;;;;;;;;;5065750;28;20457;-75
2022/12/25 09:04:58;;;;;;;10.60;5.38;;;;;;;;;;5067704;28;20040;-75
2022/12/25 09:07:24;;;;;;;14.63;5.70;;;;;;;;;;5050229;28;20020;-74
2022/12/25 09:09:49;;;;;;;10.32;5.85;;;;;;;;;;5064260;28;20037;-74
2022/12/25 09:12:14;;;;;;;11.45;5.97;;;;;;;;;;5066594;28;20040;-74
2022/12/25 09:14:40;;;;;;;13.70;7.25;;;;;;;;;;5067544;28;20020;-74
2022/12/25 09:17:05;;;;;;;11.77;6.57;;;;;;;;;;5048461;28;20448;-73
2022/12/25 09:19:30;;;;;;;13.48;6.68;;;;;;;;;;5057859;28;20040;-73
2022/12/25 09:21:56;;;;;;;10.23;5.95;;;;;;;;;;5063720;28;20024;-73
2022/12/25 09:24:21;;;;;;;10.05;5.32;;;;;;;;;;5048778;28;20057;-73
2022/12/25 09:26:47;;;;;;;10.60;5.55;;;;;;;;;;5047394;28;20112;-75
2022/12/25 09:29:13;;;;;;;13.05;5.78;;;;;;;;;;5063787;28;20036;-75
2022/12/25 09:31:39;;;;;;;10.93;5.07;;;;;;;;;;5061899;28;20090;-76
2022/12/25 09:34:04;;;;;;;9.13;5.03;;;;;;;;;;5061706;28;20384;-73
2022/12/25 09:36:29;;;;;;;13.48;5.28;;;;;;;;;;5067989;28;20025;-74
2022/12/25 09:38:55;;;;;;;7.68;4.75;;;;;;;;;;5065414;28;20037;-76
2022/12/25 09:41:38;;;;;;;11.25;5.32;;;;;;;;;;5066854;28;20403;-74
2022/12/25 09:44:15;;;;;;;6.78;4.57;;;;;;;;;;5062829;28;20043;-74
2022/12/25 09:46:44;;;;;;;11.88;4.97;;;;;;;;;;5065562;28;20043;-74
2022/12/25 09:49:16;;;;;;;10.43;5.00;;;;;;;;;;5058967;28;20119;-74
2022/12/25 09:51:43;;;;;;;11.95;4.97;;;;;;;;;;5057202;28;20535;-74
2022/12/25 09:54:28;;;;;;;7.82;4.65;;;;;;;;;;5057945;28;20115;-74
2022/12/25 09:56:54;;;;;;;10.27;5.10;;;;;;;;;;5063863;28;20036;-74
2022/12/25 09:59:26;;;;;;;11.32;4.72;;;;;;;;;;5060048;28;20024;-74
2022/12/25 10:01:58;;;;;;;7.68;4.80;;;;;;;;;;5045195;28;20033;-74
2022/12/25 10:04:31;;;;;;;11.63;4.75;;;;;;;;;;5059992;28;20487;-75
2022/12/25 10:07:15;;;;;;;9.55;4.50;;;;;;;;;;5061626;28;20484;-74
2022/12/25 10:10:13;;;;;;;8.07;5.10;;;;;;;;;;5047347;28;20127;-75
2022/12/25 10:12:51;;;;;;;11.05;4.47;;;;;;;;;;5057016;28;20105;-74
2022/12/25 10:15:24;;;;;;;9.77;4.68;;;;;;;;;;5044405;28;20503;-74
2022/12/25 10:18:05;;;;;;;8.48;4.65;;;;;;;;;;5041418;28;20032;-74
2022/12/25 10:20:45;;;;;;;9.60;5.10;;;;;;;;;;5061651;28;20042;-74
2022/12/25 10:23:16;;;;;;;7.90;4.53;;;;;;;;;;5044993;28;20024;-74
2022/12/25 10:25:43;;;;;;;9.85;4.68;;;;;;;;;;5065788;28;20026;-73
2022/12/25 10:28:24;;;;;;;9.20;4.47;;;;;;;;;;5050136;28;20029;-74
2022/12/25 10:30:52;;;;;;;8.68;4.53;;;;;;;;;;5066841;28;20036;-74
2022/12/25 10:33:18;;;;;;;11.27;4.75;;;;;;;;;;5068420;28;20447;-74
2022/12/25 10:35:44;;;;;;;12.40;4.28;;;;;;;;;;5068458;28;20032;-75
2022/12/25 10:38:15;;;;;;;12.10;4.57;;;;;;;;;;5068435;28;20028;-74
2022/12/25 10:41:20;;;;;;;9.48;4.25;;;;;;;;;;5067448;28;20476;-75
2022/12/25 10:43:50;;;;;;;10.70;4.13;;;;;;;;;;5065719;28;20023;-74
2022/12/25 10:46:17;;;;;;;10.93;4.30;;;;;;;;;;5068190;28;20449;-75
2022/12/25 10:48:48;;;;;;;6.93;3.80;;;;;;;;;;5048843;28;20497;-75
2022/12/25 10:51:26;;;;;;;9.15;4.15;;;;;;;;;;5066369;28;20098;-75
2022/12/25 10:53:51;;;;;;;11.25;4.43;;;;;;;;;;5050323;28;20519;-75
2022/12/25 10:56:17;;;;;;;9.27;3.72;;;;;;;;;;5059541;28;20025;-74
2022/12/25 10:58:42;;;;;;;7.78;4.00;;;;;;;;;;5061871;28;20028;-75
2022/12/25 11:01:08;;;;;;;7.43;3.95;;;;;;;;;;5053963;28;20115;-74
2022/12/25 11:03:39;;;;;;;8.18;3.78;;;;;;;;;;5040958;28;20033;-74
2022/12/25 11:06:19;;;;;;;8.68;3.67;;;;;;;;;;5067296;28;20032;-76
2022/12/25 11:08:52;;;;;;;7.82;3.25;;;;;;;;;;5061422;28;20423;-75
2022/12/25 11:11:19;;;;;;;8.57;3.60;;;;;;;;;;5067714;28;20033;-75
2022/12/25 11:13:51;;;;;;;9.98;3.95;;;;;;;;;;5065227;28;20399;-75
2022/12/25 11:16:33;;;;;;;6.13;3.42;;;;;;;;;;5066753;28;20044;-76
2022/12/25 11:18:59;;;;;;;8.55;3.95;;;;;;;;;;5064977;28;20082;-74
2022/12/25 11:21:30;;;;;;;7.20;3.50;;;;;;;;;;5067096;28;20032;-75
2022/12/25 11:23:59;;;;;;;7.25;3.50;;;;;;;;;;5063280;28;20048;-75
2022/12/25 11:26:25;;;;;;;9.23;4.22;;;;;;;;;;5067982;28;20032;-74
2022/12/25 11:28:53;;;;;;;7.78;3.78;;;;;;;;;;5065323;28;20106;-75
2022/12/25 11:31:21;;;;;;;7.88;3.40;;;;;;;;;;5059555;28;20032;-75
2022/12/25 11:34:06;;;;;;;7.68;3.70;;;;;;;;;;5063370;28;20029;-75
2022/12/25 11:36:45;;;;;;;10.23;4.05;;;;;;;;;;5060996;28;20029;-74
2022/12/25 11:39:24;;;;;;;7.20;3.35;;;;;;;;;;5067421;28;20033;-76
2022/12/25 11:41:54;;;;;;;7.50;3.60;;;;;;;;;;5059015;28;20025;-74
2022/12/25 11:44:38;;;;;;;8.70;3.65;;;;;;;;;;5044049;28;21502;-74
2022/12/25 11:47:18;;;;;;;6.75;3.63;;;;;;;;;;5047221;28;20086;-74
2022/12/25 11:49:53;;;;;;;8.60;4.25;;;;;;;;;;5061462;28;20416;-74
2022/12/25 11:52:20;;;;;;;9.52;3.58;;;;;;;;;;5064720;28;20024;-74
2022/12/25 11:54:53;;;;;;;6.18;3.75;;;;;;;;;;5057973;28;20020;-76
2022/12/25 11:57:20;;;;;;;;;;;;;;;;;;5060908;28;20473;-72
2022/12/25 11:59:54;;;;;;;6.88;3.38;;;;;;;;;;5062651;28;19916;-74
2022/12/25 12:02:28;;;;;;;10.05;4.20;;;;;;;;;;5055523;28;20033;-74
2022/12/25 12:05:23;;;;;;;6.10;4.03;;;;;;;;;;5058951;28;20021;-74
2022/12/25 12:08:03;;;;;;;9.23;4.28;;;;;;;;;;5030925;28;20231;-76
2022/12/25 12:10:32;;;;;;;8.65;4.13;;;;;;;;;;5047625;28;20510;-75
2022/12/25 12:13:13;;;;;;;6.30;3.55;;;;;;;;;;5059493;28;20028;-73
2022/12/25 12:15:45;;;;;;;6.40;3.60;;;;;;;;;;5063728;28;20025;-73
2022/12/25 12:18:33;;;;;;;6.10;3.80;;;;;;;;;;5061192;28;20044;-73
2022/12/25 12:21:00;;;;;;;5.13;3.25;;;;;;;;;;5046070;28;20062;-75
2022/12/25 12:23:27;;;;;;;7.55;3.63;;;;;;;;;;5067759;28;21169;-75
2022/12/25 12:25:53;;;;;;;4.97;3.08;;;;;;;;;;5067391;28;20159;-74
2022/12/25 12:28:36;;;;;;;6.65;3.33;;;;;;;;;;5069557;28;20112;-74
2022/12/25 12:31:04;;;;;;;7.95;3.22;;;;;;;;;;5070177;28;20511;-74
2022/12/25 12:33:37;;;;;;;8.35;3.25;;;;;;;;;;5070179;28;20070;-73
2022/12/25 12:36:04;;;;;;;7.15;3.42;;;;;;;;;;5067049;28;20468;-73
2022/12/25 12:38:31;;;;;;;9.75;3.03;;;;;;;;;;5042538;28;20029;-73
2022/12/25 12:41:03;;;;;;;8.13;3.17;;;;;;;;;;5067914;28;20104;-76
2022/12/25 12:43:38;;;;;;;5.43;3.20;;;;;;;;;;5068508;28;20492;-77
2022/12/25 12:46:22;;;;;;;5.82;2.90;;;;;;;;;;5066248;28;20063;-74
2022/12/25 12:48:51;;;;;;;7.00;3.05;;;;;;;;;;5066021;28;20036;-75
2022/12/25 12:51:45;;;;;;;6.80;3.60;;;;;;;;;;5061459;28;20029;-77
2022/12/25 12:54:23;;;;;;;5.85;3.00;;;;;;;;;;5040455;28;20452;-76
2022/12/25 12:56:59;;;;;;;6.65;3.30;;;;;;;;;;5066479;28;20496;-75
2022/12/25 12:59:30;;;;;;;6.75;3.40;;;;;;;;;;5066783;28;20400;-74
2022/12/25 13:02:04;;;;;;;8.07;3.03;;;;;;;;;;5063597;28;20398;-75
2022/12/25 13:04:45;;;;;;;4.82;2.83;;;;;;;;;;5063248;28;20028;-75
2022/12/25 13:07:43;;;;;;;7.35;3.28;;;;;;;;;;5067455;28;20489;-74
2022/12/25 13:10:11;;;;;;;7.47;2.78;;;;;;;;;;5063684;28;20036;-76
2022/12/25 13:12:37;;;;;;;7.05;3.10;;;;;;;;;;5066910;28;20030;-75
2022/12/25 13:15:02;;;;;;;6.03;3.08;;;;;;;;;;5061832;28;20040;-75
2022/12/25 13:17:28;;;;;;;6.32;2.88;;;;;;;;;;5066916;28;20060;-77
2022/12/25 13:19:57;;;;;;;5.30;3.03;;;;;;;;;;5064688;28;20121;-76
2022/12/25 13:22:32;;;;;;;5.72;3.10;;;;;;;;;;5061930;28;20095;-76
2022/12/25 13:25:00;;;;;;;6.45;2.95;;;;;;;;;;5066154;28;20032;-75
2022/12/25 13:27:28;;;;;;;5.45;2.80;;;;;;;;;;5066961;28;20107;-74
2022/12/25 13:29:53;;;;;;;6.15;3.00;;;;;;;;;;5064143;28;20091;-76
2022/12/25 13:32:23;;;;;;;6.40;3.50;;;;;;;;;;5047483;28;20584;-73
2022/12/25 13:34:50;;;;;;;6.60;2.83;;;;;;;;;;5066673;28;20032;-74
2022/12/25 13:37:18;;;;;;;5.65;2.95;;;;;;;;;;5066188;28;20039;-75
2022/12/25 13:40:03;;;;;;;5.63;3.13;;;;;;;;;;5066115;28;20029;-75
2022/12/25 13:42:32;;;;;;;6.22;3.30;;;;;;;;;;5065757;28;20028;-75
2022/12/25 13:45:21;;;;;;;5.35;3.10;;;;;;;;;;5048692;28;20099;-76
2022/12/25 13:47:46;;;;;;;4.85;3.05;;;;;;;;;;5064224;28;20111;-73
2022/12/25 13:50:31;;;;;;;5.22;3.10;;;;;;;;;;5045432;28;20108;-74
2022/12/25 13:53:09;;;;;;;6.32;2.90;;;;;;;;;;5065165;28;20020;-77
2022/12/25 13:55:35;;;;;;;5.97;2.95;;;;;;;;;;5062771;28;20029;-75
2022/12/25 13:58:04;;;;;;;6.22;2.92;;;;;;;;;;5066747;28;20397;-75
2022/12/25 14:00:43;;;;;;;4.85;2.70;;;;;;;;;;5063956;28;20128;-75
2022/12/25 14:03:17;;;;;;;4.72;2.63;;;;;;;;;;5066090;28;20050;-75
2022/12/25 14:05:43;;;;;;;6.45;3.38;;;;;;;;;;5064373;28;20020;-76
2022/12/25 14:08:18;;;;;;;4.85;3.15;;;;;;;;;;5065550;28;20047;-75
2022/12/25 14:10:46;;;;;;;4.90;2.97;;;;;;;;;;5068047;28;20039;-75
2022/12/25 14:13:14;;;;;;;5.43;3.20;;;;;;;;;;5063328;28;20028;-75
2022/12/25 14:15:40;;;;;;;5.80;3.67;;;;;;;;;;5058801;28;20111;-74
2022/12/25 14:18:13;;;;;;;5.82;3.35;;;;;;;;;;5066951;28;20043;-74
2022/12/25 14:20:41;;;;;;;5.90;3.22;;;;;;;;;;5063670;28;20040;-74
2022/12/25 14:23:14;;;;;;;6.22;3.65;;;;;;;;;;5063722;28;20036;-75
2022/12/25 14:25:44;;;;;;;5.47;3.20;;;;;;;;;;5068712;28;20029;-73
2022/12/25 14:28:23;;;;;;;7.15;3.40;;;;;;;;;;5061781;28;20040;-75
2022/12/25 14:30:49;;;;;;;5.25;2.95;;;;;;;;;;5063878;28;20031;-73
2022/12/25 14:33:18;;;;;;;8.57;3.10;;;;;;;;;;5069008;28;20025;-73
2022/12/25 14:35:44;;;;;;;5.30;3.42;;;;;;;;;;5069347;28;20027;-71
2022/12/25 14:38:34;;;;;;;6.13;3.30;;;;;;;;;;5068202;28;20035;-74
2022/12/25 14:41:32;;;;;;;6.82;3.38;;;;;;;;;;5070175;28;20392;-74
2022/12/25 14:44:00;;;;;;;5.15;4.30;;;;;;;;;;5034245;28;20481;-69
2022/12/25 14:46:28;;;;;;;5.22;3.70;;;;;;;;;;5071197;28;20024;-70
2022/12/25 14:48:59;;;;;;;7.80;4.30;;;;;;;;;;5055470;28;20087;-69
2022/12/25 14:51:25;;;;;;;8.27;4.00;;;;;;;;;;5060397;28;20116;-70
2022/12/25 14:53:54;;;;;;;5.50;4.05;;;;;;;;;;5072154;28;20032;-71
2022/12/25 14:56:23;;;;;;;5.22;3.58;;;;;;;;;;5071658;28;20154;-70
2022/12/25 14:58:57;;;;;;;7.68;4.05;;;;;;;;;;5073904;28;20107;-71
2022/12/25 15:01:32;;;;;;;6.78;4.65;;;;;;;;;;5053799;28;20154;-70
2022/12/25 15:04:14;;;;;;;8.55;4.60;;;;;;;;;;5046057;28;20100;-73
2022/12/25 15:07:07;;;;;;;6.33;4.47;;;;;;;;;;5069179;28;20058;-71
2022/12/25 15:09:34;;;;;;;9.77;4.03;;;;;;;;;;5070805;28;20333;-71
2022/12/25 15:12:00;;;;;;;7.90;4.25;;;;;;;;;;5050415;28;20031;-72
2022/12/25 15:14:28;;;;;;;7.07;4.30;;;;;;;;;;5071482;28;20024;-69
2022/12/25 15:16:57;;;;;;;6.18;4.30;;;;;;;;;;5072056;28;20097;-71
2022/12/25 15:19:34;;;;;;;6.63;4.60;;;;;;;;;;5071796;28;20040;-68
2022/12/25 15:22:01;;;;;;;7.25;4.88;;;;;;;;;;5035181;28;20660;-71
2022/12/25 15:24:26;;;;;;;7.47;4.30;;;;;;;;;;5050045;28;20124;-69
2022/12/25 15:26:54;;;;;;;9.30;5.10;;;;;;;;;;5050474;28;20479;-71
2022/12/25 15:29:21;;;;;;;8.80;4.97;;;;;;;;;;5069807;28;20415;-72
2022/12/25 15:31:47;;;;;;;7.15;4.93;;;;;;;;;;5070746;28;20490;-70
2022/12/25 15:34:19;;;;;;;13.55;5.30;;;;;;;;;;5050395;28;20036;-75
2022/12/25 15:36:51;;;;;;;12.20;5.37;;;;;;;;;;5071080;28;20028;-73
2022/12/25 15:39:16;;;;;;;8.88;5.47;;;;;;;;;;5069022;28;20060;-69
2022/12/25 15:44:26;;;;;;;6.63;4.70;;;;;;;;;;5068686;28;20085;-69
2022/12/25 15:46:51;;;;;;;7.38;4.55;;;;;;;;;;5050339;28;20028;-69
2022/12/25 15:49:18;;;;;;;10.52;5.18;;;;;;;;;;5050182;28;20032;-72
2022/12/25 15:51:44;;;;;;;10.60;5.20;;;;;;;;;;5066405;28;20540;-70
2022/12/25 15:54:11;;;;;;;9.18;5.30;;;;;;;;;;5059637;28;20384;-72
2022/12/25 15:56:48;;;;;;;9.18;4.93;;;;;;;;;;5052848;28;20450;-70
2022/12/25 15:59:16;;;;;;;15.60;5.97;;;;;;;;;;5065077;28;20725;-72
2022/12/25 16:01:45;;;;;;;13.57;5.93;;;;;;;;;;5049535;28;20028;-69
2022/12/25 16:04:10;;;;;;;14.55;6.25;;;;;;;;;;5051126;28;20110;-72
2022/12/25 16:06:36;;;;;;;15.13;7.88;;;;;;;;;;5066609;28;20060;-70
2022/12/25 16:09:01;;;;;;;12.55;6.53;;;;;;;;;;5067636;28;20036;-71
2022/12/25 16:11:26;;;;;;;12.40;5.90;;;;;;;;;;5069158;28;20515;-69
2022/12/25 16:13:52;;;;;;;13.23;6.13;;;;;;;;;;5066080;28;20116;-69
2022/12/25 16:16:17;;;;;;;11.13;6.03;;;;;;;;;;5068379;28;20392;-69
2022/12/25 16:18:43;;;;;;;17.20;6.93;;;;;;;;;;5069507;28;20162;-69
2022/12/25 16:21:12;;;;;;;18.83;7.35;;;;;;;;;;5050874;28;20075;-68
2022/12/25 16:23:37;;;;;;;30.27;9.02;;;;;;;;;;5067391;28;20036;-69
2022/12/25 16:26:03;;;;;;;27.95;9.48;;;;;;;;;;5067957;28;20426;-67
2022/12/25 16:28:28;;;;;;;35.38;10.40;;;;;;;;;;5070668;28;20024;-68
2022/12/25 16:30:53;;;;;;;21.65;9.45;;;;;;;;;;5068688;28;20036;-70
2022/12/25 16:33:19;;;;;;;29.75;9.68;;;;;;;;;;5051879;28;20029;-70